createdAt,value
2019-06-27T03:27:56.837Z,120.00
2019-06-27T03:28:56.837Z,120.00
2019-06-27T03:29:57.588Z,120.00
2019-06-27T03:30:57.540Z,128.00
2019-06-27T03:34:12.607Z,164.00
2019-06-27T03:35:12.216Z,160.00
2019-06-27T03:36:11.737Z,172.00
2019-06-27T03:37:13.025Z,196.00
2019-06-27T03:41:12.242Z,284.00
2019-06-27T03:44:57.309Z,300.00
2019-06-27T03:45:56.189Z,364.00
2019-06-27T03:46:56.516Z,336.00
2019-06-27T03:47:56.999Z,320.00
2019-06-27T03:51:01.423Z,336.00
2019-06-27T03:52:01.353Z,328.00
2019-06-27T03:53:01.234Z,296.00
2019-06-27T03:54:01.662Z,308.00
2019-06-27T03:55:01.423Z,332.00
2019-06-27T03:56:00.883Z,324.00
2019-06-27T03:57:01.217Z,328.00
2019-06-27T03:58:01.164Z,416.00
2019-06-27T03:59:12.346Z,412.00
2019-06-27T04:00:00.310Z,340.00
2019-06-27T04:01:00.224Z,316.00
2019-06-27T04:02:00.205Z,328.00
2019-06-27T04:03:00.278Z,316.00
2019-06-27T04:04:00.240Z,340.00
2019-06-27T04:05:00.254Z,404.00
2019-06-27T04:06:00.312Z,416.00
2019-06-27T04:07:00.370Z,380.00
2019-06-27T04:08:00.339Z,444.00
2019-06-27T04:09:00.389Z,512.00
2019-06-27T04:10:00.350Z,508.00
2019-06-27T04:11:00.378Z,488.00
2019-06-27T04:12:00.410Z,452.00
2019-06-27T04:13:00.409Z,484.00
2019-06-27T04:14:00.482Z,488.00
2019-06-27T04:15:00.536Z,568.00
2019-06-27T04:16:00.458Z,492.00
2019-06-27T04:17:00.478Z,536.00
2019-06-27T04:18:00.504Z,600.00
2019-06-27T04:19:00.568Z,664.00
2019-06-27T04:20:00.598Z,688.00
2019-06-27T04:21:00.575Z,644.00
2019-06-27T04:22:00.586Z,740.00
2019-06-27T04:23:00.620Z,800.00
2019-06-27T04:24:00.630Z,756.00
2019-06-27T04:25:00.713Z,796.00
2019-06-27T04:26:00.644Z,804.00
2019-06-27T04:27:00.669Z,820.00
2019-06-27T04:28:00.949Z,868.00
2019-06-27T04:29:00.699Z,964.00
2019-06-27T04:30:00.780Z,1004.00
2019-06-27T04:31:00.826Z,932.00
2019-06-27T04:32:00.759Z,884.00
2019-06-27T04:33:00.821Z,924.00
2019-06-27T04:34:00.819Z,988.00
2019-06-27T04:35:00.814Z,912.00
2019-06-27T04:36:00.857Z,1020.00
2019-06-27T04:37:00.850Z,1088.00
2019-06-27T04:38:00.920Z,1016.00
2019-06-27T04:39:00.975Z,912.00
2019-06-27T04:40:00.906Z,916.00
2019-06-27T04:41:00.939Z,988.00
2019-06-27T04:42:01.035Z,948.00
2019-06-27T04:43:05.329Z,940.00
2019-06-27T04:44:01.002Z,1020.00
2019-06-27T04:45:01.003Z,1084.00
2019-06-27T04:46:01.020Z,1044.00
2019-06-27T04:47:01.089Z,1096.00
2019-06-27T04:48:01.105Z,1092.00
2019-06-27T04:49:01.081Z,1168.00
2019-06-27T04:50:01.092Z,1128.00
2019-06-27T04:51:01.119Z,1168.00
2019-06-27T04:52:01.142Z,1336.00
2019-06-27T04:53:01.224Z,1376.00
2019-06-27T04:54:01.173Z,1452.00
2019-06-27T04:55:03.579Z,1408.00
2019-06-27T04:56:01.286Z,1372.00
2019-06-27T04:57:01.258Z,1364.00
2019-06-27T04:58:01.258Z,1284.00
2019-06-27T04:59:01.348Z,1300.00
2019-06-27T05:00:01.285Z,1204.00
2019-06-27T05:01:01.316Z,1152.00
2019-06-27T05:02:01.326Z,1300.00
2019-06-27T05:03:01.345Z,1264.00
2019-06-27T05:04:01.414Z,1232.00
2019-06-27T05:05:01.376Z,1356.00
2019-06-27T05:06:01.465Z,1416.00
2019-06-27T05:07:01.520Z,1416.00
2019-06-27T05:08:01.449Z,1296.00
2019-06-27T05:09:01.489Z,1340.00
2019-06-27T05:10:01.480Z,1388.00
2019-06-27T05:11:01.500Z,1372.00
2019-06-27T05:12:01.534Z,1392.00
2019-06-27T05:13:01.624Z,1588.00
2019-06-27T05:14:01.552Z,1512.00
2019-06-27T05:15:01.573Z,1544.00
2019-06-27T05:16:01.601Z,1672.00
2019-06-27T05:17:01.623Z,1720.00
2019-06-27T05:18:01.635Z,1612.00
2019-06-27T05:19:01.755Z,1624.00
2019-06-27T05:20:03.232Z,1592.00
2019-06-27T05:21:01.701Z,1748.00
2019-06-27T05:22:01.704Z,1668.00
2019-06-27T05:23:01.783Z,1596.00
2019-06-27T05:24:01.745Z,1792.00
2019-06-27T05:25:01.792Z,1900.00
2019-06-27T05:26:01.851Z,1772.00
2019-06-27T05:27:01.805Z,1864.00
2019-06-27T05:28:01.846Z,1868.00
2019-06-27T05:29:01.883Z,1928.00
2019-06-27T05:30:09.175Z,1984.00
2019-06-27T05:31:01.944Z,1820.00
2019-06-27T05:32:01.906Z,2084.00
2019-06-27T05:33:01.980Z,2252.00
2019-06-27T05:34:02.021Z,2296.00
2019-06-27T05:35:02.009Z,2520.00
2019-06-27T05:36:02.644Z,2284.00
2019-06-27T05:37:02.023Z,2348.00
2019-06-27T05:38:02.014Z,2612.00
2019-06-27T05:39:02.080Z,3268.00
2019-06-27T05:40:02.176Z,3540.00
2019-06-27T05:41:02.142Z,4232.00
2019-06-27T05:42:02.239Z,4692.00
2019-06-27T05:43:02.174Z,4156.00
2019-06-27T05:44:02.131Z,3812.00
2019-06-27T05:45:02.158Z,3044.00
2019-06-27T05:46:02.266Z,3016.00
2019-06-27T05:47:02.418Z,3288.00
2019-06-27T05:48:02.257Z,3264.00
2019-06-27T05:49:02.391Z,3224.00
2019-06-27T05:50:02.370Z,3320.00
2019-06-27T05:51:02.481Z,3268.00
2019-06-27T05:52:02.387Z,3252.00
2019-06-27T05:53:04.115Z,3320.00
2019-06-27T05:54:02.383Z,3852.00
2019-06-27T05:55:02.469Z,4004.00
2019-06-27T05:56:02.613Z,4260.00
2019-06-27T05:57:02.458Z,4996.00
2019-06-27T05:58:02.475Z,5628.00
2019-06-27T05:59:02.543Z,6912.00
2019-06-27T06:00:02.487Z,8404.00
2019-06-27T06:01:02.488Z,12320.00
2019-06-27T06:02:02.538Z,8220.00
2019-06-27T06:03:02.580Z,6448.00
2019-06-27T06:04:02.565Z,6332.00
2019-06-27T06:05:02.607Z,5728.00
2019-06-27T06:06:02.579Z,5760.00
2019-06-27T06:07:02.870Z,7372.00
2019-06-27T06:08:03.337Z,6624.00
2019-06-27T06:09:05.309Z,6124.00
2019-06-27T06:10:02.696Z,6788.00
2019-06-27T06:11:02.743Z,8624.00
2019-06-27T06:12:02.719Z,8516.00
2019-06-27T06:13:02.800Z,12808.00
2019-06-27T06:14:02.790Z,18560.00
2019-06-27T06:15:02.859Z,10012.00
2019-06-27T06:16:02.803Z,9940.00
2019-06-27T06:17:03.714Z,9156.00
2019-06-27T06:18:02.895Z,13168.00
2019-06-27T06:19:02.862Z,12472.00
2019-06-27T06:20:02.947Z,8676.00
2019-06-27T06:21:03.640Z,9932.00
2019-06-27T06:22:03.126Z,10240.00
2019-06-27T06:23:03.499Z,11020.00
2019-06-27T06:24:02.966Z,11280.00
2019-06-27T06:25:03.115Z,16768.00
2019-06-27T06:26:03.454Z,23424.00
2019-06-27T06:27:03.955Z,19648.00
2019-06-27T06:28:03.056Z,23392.00
2019-06-27T06:29:03.862Z,21728.00
2019-06-27T06:30:03.264Z,24096.00
2019-06-27T06:31:03.287Z,23456.00
2019-06-27T06:32:06.165Z,23488.00
2019-06-27T06:33:03.500Z,17600.00
2019-06-27T06:34:03.273Z,20352.00
2019-06-27T06:35:03.269Z,23904.00
2019-06-27T06:36:03.255Z,21440.00
2019-06-27T06:37:03.337Z,21440.00
2019-06-27T06:38:03.309Z,13864.00
2019-06-27T06:39:03.351Z,22432.00
2019-06-27T06:40:03.448Z,10844.00
2019-06-27T06:41:04.049Z,12996.00
2019-06-27T06:46:28.859Z,14092.00
2019-06-27T06:48:27.292Z,12252.00
2019-06-27T06:49:25.997Z,20896.00
2019-06-27T06:50:24.904Z,19552.00
2019-06-27T06:52:28.056Z,20928.00
2019-06-27T06:53:37.695Z,16128.00
2019-06-27T11:01:22.242Z,2244.00
2019-06-27T11:02:08.162Z,2248.00
2019-06-27T11:03:15.327Z,2260.00
